sensor_id;sensor_type;location;lat;lon;timestamp;pressure;altitude;pressure_sealevel;temperature;humidity
73551;BME280;61816;53.582;10.096;2022-09-14T00:00:40;100473.34;;;15.36;84.80
73551;BME280;61816;53.582;10.096;2022-09-14T00:03:06;100469.44;;;15.17;85.70
73551;BME280;61816;53.582;10.096;2022-09-14T00:05:34;100476.25;;;15.28;85.28
73551;BME280;61816;53.582;10.096;2022-09-14T00:08:00;100469.16;;;15.34;84.93
73551;BME280;61816;53.582;10.096;2022-09-14T00:10:25;100477.28;;;15.27;85.34
73551;BME280;61816;53.582;10.096;2022-09-14T00:12:51;100464.91;;;15.31;85.22
73551;BME280;61816;53.582;10.096;2022-09-14T00:15:16;100459.88;;;15.28;85.44
73551;BME280;61816;53.582;10.096;2022-09-14T00:17:41;100463.91;;;15.32;84.97
73551;BME280;61816;53.582;10.096;2022-09-14T00:20:07;100468.50;;;15.04;86.28
73551;BME280;61816;53.582;10.096;2022-09-14T00:22:33;100457.88;;;14.87;87.31
73551;BME280;61816;53.582;10.096;2022-09-14T00:24:58;100450.97;;;15.13;86.19
73551;BME280;61816;53.582;10.096;2022-09-14T00:27:24;100448.97;;;15.28;85.23
73551;BME280;61816;53.582;10.096;2022-09-14T00:29:49;100452.66;;;15.14;85.89
73551;BME280;61816;53.582;10.096;2022-09-14T00:32:14;100448.88;;;15.15;86.13
73551;BME280;61816;53.582;10.096;2022-09-14T00:34:40;100446.16;;;15.15;86.06
73551;BME280;61816;53.582;10.096;2022-09-14T00:37:05;100440.66;;;15.08;86.26
73551;BME280;61816;53.582;10.096;2022-09-14T00:39:31;100435.66;;;14.90;87.39
73551;BME280;61816;53.582;10.096;2022-09-14T00:41:56;100431.00;;;14.84;87.33
73551;BME280;61816;53.582;10.096;2022-09-14T00:46:50;100425.97;;;14.81;87.58
73551;BME280;61816;53.582;10.096;2022-09-14T00:51:54;100411.06;;;15.12;86.23
73551;BME280;61816;53.582;10.096;2022-09-14T00:54:22;100406.75;;;15.24;85.13
73551;BME280;61816;53.582;10.096;2022-09-14T00:56:48;100399.41;;;15.25;85.02
73551;BME280;61816;53.582;10.096;2022-09-14T00:59:35;100404.25;;;14.95;86.46
73551;BME280;61816;53.582;10.096;2022-09-14T01:02:01;100407.38;;;14.91;86.49
73551;BME280;61816;53.582;10.096;2022-09-14T01:04:27;100397.50;;;14.90;86.14
73551;BME280;61816;53.582;10.096;2022-09-14T01:07:00;100400.50;;;14.96;85.49
73551;BME280;61816;53.582;10.096;2022-09-14T01:20:54;100402.06;;;14.83;85.82
73551;BME280;61816;53.582;10.096;2022-09-14T01:28:41;100407.53;;;14.83;85.04
73551;BME280;61816;53.582;10.096;2022-09-14T01:31:22;100412.19;;;14.89;84.67
73551;BME280;61816;53.582;10.096;2022-09-14T01:33:58;100423.09;;;14.89;84.84
73551;BME280;61816;53.582;10.096;2022-09-14T01:36:27;100407.28;;;14.57;86.61
73551;BME280;61816;53.582;10.096;2022-09-14T01:38:55;100417.00;;;14.66;85.19
73551;BME280;61816;53.582;10.096;2022-09-14T01:41:23;100410.66;;;14.59;86.45
73551;BME280;61816;53.582;10.096;2022-09-14T01:43:53;100408.47;;;14.48;87.05
73551;BME280;61816;53.582;10.096;2022-09-14T01:46:25;100418.88;;;14.44;87.57
73551;BME280;61816;53.582;10.096;2022-09-14T01:51:25;100415.75;;;14.26;89.24
73551;BME280;61816;53.582;10.096;2022-09-14T01:54:19;100408.75;;;14.38;88.17
73551;BME280;61816;53.582;10.096;2022-09-14T01:56:52;100403.31;;;14.38;88.24
73551;BME280;61816;53.582;10.096;2022-09-14T01:59:24;100403.94;;;14.55;87.59
73551;BME280;61816;53.582;10.096;2022-09-14T02:01:58;100406.41;;;14.50;87.14
73551;BME280;61816;53.582;10.096;2022-09-14T02:07:10;100402.34;;;14.24;87.92
73551;BME280;61816;53.582;10.096;2022-09-14T02:09:36;100410.84;;;14.00;89.46
73551;BME280;61816;53.582;10.096;2022-09-14T02:12:02;100412.16;;;14.04;89.41
73551;BME280;61816;53.582;10.096;2022-09-14T02:14:28;100413.84;;;14.05;89.38
73551;BME280;61816;53.582;10.096;2022-09-14T02:16:53;100413.44;;;14.08;89.49
73551;BME280;61816;53.582;10.096;2022-09-14T02:19:19;100417.06;;;13.94;90.59
73551;BME280;61816;53.582;10.096;2022-09-14T02:21:45;100408.97;;;14.15;89.34
73551;BME280;61816;53.582;10.096;2022-09-14T02:24:11;100406.59;;;14.12;89.84
73551;BME280;61816;53.582;10.096;2022-09-14T02:26:37;100406.53;;;14.27;88.79
73551;BME280;61816;53.582;10.096;2022-09-14T02:29:03;100413.44;;;14.08;89.67
73551;BME280;61816;53.582;10.096;2022-09-14T02:31:40;100411.53;;;14.02;90.40
73551;BME280;61816;53.582;10.096;2022-09-14T02:34:31;100398.28;;;13.99;90.64
73551;BME280;61816;53.582;10.096;2022-09-14T02:37:18;100408.16;;;14.21;89.59
73551;BME280;61816;53.582;10.096;2022-09-14T02:48:07;100386.13;;;14.37;88.66
73551;BME280;61816;53.582;10.096;2022-09-14T02:55:50;100389.22;;;14.13;89.16
73551;BME280;61816;53.582;10.096;2022-09-14T02:58:16;100391.59;;;14.01;89.76
73551;BME280;61816;53.582;10.096;2022-09-14T03:00:44;100383.41;;;14.16;89.19
73551;BME280;61816;53.582;10.096;2022-09-14T03:03:12;100390.25;;;13.91;90.02
73551;BME280;61816;53.582;10.096;2022-09-14T03:05:38;100390.84;;;13.71;90.95
73551;BME280;61816;53.582;10.096;2022-09-14T03:08:04;100391.31;;;14.11;89.71
73551;BME280;61816;53.582;10.096;2022-09-14T03:10:31;100389.63;;;14.10;88.97
73551;BME280;61816;53.582;10.096;2022-09-14T03:12:57;100394.16;;;14.03;89.25
73551;BME280;61816;53.582;10.096;2022-09-14T03:15:23;100384.31;;;14.02;89.33
73551;BME280;61816;53.582;10.096;2022-09-14T03:17:49;100385.72;;;13.98;89.55
73551;BME280;61816;53.582;10.096;2022-09-14T03:20:17;100388.25;;;13.99;89.78
73551;BME280;61816;53.582;10.096;2022-09-14T03:22:44;100379.22;;;13.77;90.68
73551;BME280;61816;53.582;10.096;2022-09-14T03:25:09;100381.81;;;13.85;90.40
73551;BME280;61816;53.582;10.096;2022-09-14T03:27:34;100378.59;;;13.97;89.78
73551;BME280;61816;53.582;10.096;2022-09-14T03:30:00;100380.78;;;13.87;90.27
73551;BME280;61816;53.582;10.096;2022-09-14T03:32:25;100378.81;;;13.80;90.00
73551;BME280;61816;53.582;10.096;2022-09-14T03:34:51;100378.53;;;13.90;89.88
73551;BME280;61816;53.582;10.096;2022-09-14T03:37:16;100373.66;;;14.07;88.84
73551;BME280;61816;53.582;10.096;2022-09-14T03:39:41;100367.31;;;14.21;87.99
73551;BME280;61816;53.582;10.096;2022-09-14T03:42:07;100365.75;;;14.12;87.72
73551;BME280;61816;53.582;10.096;2022-09-14T03:44:32;100361.50;;;14.03;88.41
73551;BME280;61816;53.582;10.096;2022-09-14T03:46:58;100367.38;;;14.06;88.08
73551;BME280;61816;53.582;10.096;2022-09-14T03:49:23;100361.63;;;14.16;87.30
73551;BME280;61816;53.582;10.096;2022-09-14T03:51:48;100356.41;;;14.00;88.29
73551;BME280;61816;53.582;10.096;2022-09-14T03:54:14;100368.63;;;14.04;88.29
73551;BME280;61816;53.582;10.096;2022-09-14T03:56:39;100360.28;;;13.69;89.27
73551;BME280;61816;53.582;10.096;2022-09-14T03:59:07;100355.03;;;13.53;90.83
73551;BME280;61816;53.582;10.096;2022-09-14T04:01:33;100353.69;;;13.78;89.72
73551;BME280;61816;53.582;10.096;2022-09-14T04:03:58;100351.09;;;13.92;88.97
73551;BME280;61816;53.582;10.096;2022-09-14T04:06:24;100342.66;;;13.87;88.97
73551;BME280;61816;53.582;10.096;2022-09-14T04:08:50;100349.59;;;13.53;90.59
73551;BME280;61816;53.582;10.096;2022-09-14T04:11:19;100341.66;;;13.51;91.20
73551;BME280;61816;53.582;10.096;2022-09-14T04:13:45;100328.75;;;13.60;90.68
73551;BME280;61816;53.582;10.096;2022-09-14T04:16:11;100333.91;;;13.70;90.39
73551;BME280;61816;53.582;10.096;2022-09-14T04:18:36;100324.38;;;13.80;89.39
73551;BME280;61816;53.582;10.096;2022-09-14T04:21:07;100331.50;;;13.81;89.11
73551;BME280;61816;53.582;10.096;2022-09-14T04:23:35;100331.91;;;13.78;88.84
73551;BME280;61816;53.582;10.096;2022-09-14T04:26:00;100334.28;;;13.67;89.58
73551;BME280;61816;53.582;10.096;2022-09-14T04:28:26;100337.03;;;13.52;90.10
73551;BME280;61816;53.582;10.096;2022-09-14T04:30:59;100343.00;;;13.62;90.37
73551;BME280;61816;53.582;10.096;2022-09-14T04:33:27;100336.28;;;13.58;90.27
73551;BME280;61816;53.582;10.096;2022-09-14T04:38:28;100344.72;;;13.63;90.24
73551;BME280;61816;53.582;10.096;2022-09-14T04:40:54;100340.63;;;13.38;92.30
73551;BME280;61816;53.582;10.096;2022-09-14T04:43:19;100343.88;;;13.48;91.81
73551;BME280;61816;53.582;10.096;2022-09-14T04:45:45;100351.22;;;13.47;92.40
73551;BME280;61816;53.582;10.096;2022-09-14T04:48:10;100356.66;;;13.33;93.20
73551;BME280;61816;53.582;10.096;2022-09-14T04:50:35;100357.44;;;13.63;91.54
73551;BME280;61816;53.582;10.096;2022-09-14T04:53:01;100361.13;;;13.70;91.37
73551;BME280;61816;53.582;10.096;2022-09-14T04:55:26;100355.22;;;13.66;91.46
73551;BME280;61816;53.582;10.096;2022-09-14T04:57:52;100359.59;;;13.67;91.71
73551;BME280;61816;53.582;10.096;2022-09-14T05:00:17;100342.25;;;13.68;91.68
73551;BME280;61816;53.582;10.096;2022-09-14T05:02:43;100350.69;;;13.73;91.97
73551;BME280;61816;53.582;10.096;2022-09-14T05:05:08;100352.91;;;13.84;91.21
73551;BME280;61816;53.582;10.096;2022-09-14T05:07:34;100345.38;;;13.87;91.47
73551;BME280;61816;53.582;10.096;2022-09-14T05:09:59;100347.75;;;14.11;90.41
73551;BME280;61816;53.582;10.096;2022-09-14T05:12:24;100347.75;;;14.11;90.70
73551;BME280;61816;53.582;10.096;2022-09-14T05:14:50;100339.31;;;14.06;90.71
73551;BME280;61816;53.582;10.096;2022-09-14T05:17:15;100336.31;;;14.01;90.93
73551;BME280;61816;53.582;10.096;2022-09-14T05:19:41;100342.03;;;13.84;91.54
73551;BME280;61816;53.582;10.096;2022-09-14T05:22:06;100343.72;;;13.85;91.56
73551;BME280;61816;53.582;10.096;2022-09-14T05:24:31;100344.06;;;14.19;90.03
73551;BME280;61816;53.582;10.096;2022-09-14T05:26:57;100342.38;;;14.18;89.57
73551;BME280;61816;53.582;10.096;2022-09-14T05:29:25;100333.22;;;14.25;89.31
73551;BME280;61816;53.582;10.096;2022-09-14T05:31:51;100336.19;;;14.30;88.88
73551;BME280;61816;53.582;10.096;2022-09-14T05:34:16;100332.56;;;14.45;87.64
73551;BME280;61816;53.582;10.096;2022-09-14T05:36:42;100329.84;;;14.23;88.29
73551;BME280;61816;53.582;10.096;2022-09-14T05:39:07;100340.34;;;14.05;89.49
73551;BME280;61816;53.582;10.096;2022-09-14T05:41:33;100343.84;;;13.99;89.87
73551;BME280;61816;53.582;10.096;2022-09-14T05:43:58;100339.81;;;14.37;88.33
73551;BME280;61816;53.582;10.096;2022-09-14T05:46:24;100339.69;;;14.46;87.51
73551;BME280;61816;53.582;10.096;2022-09-14T05:48:49;100331.66;;;14.37;87.72
73551;BME280;61816;53.582;10.096;2022-09-14T05:51:23;100337.66;;;14.48;87.41
73551;BME280;61816;53.582;10.096;2022-09-14T05:53:50;100336.88;;;14.82;85.42
73551;BME280;61816;53.582;10.096;2022-09-14T05:56:17;100341.88;;;15.13;83.85
73551;BME280;61816;53.582;10.096;2022-09-14T05:58:43;100349.91;;;15.21;83.28
73551;BME280;61816;53.582;10.096;2022-09-14T06:01:12;100345.25;;;15.15;83.57
73551;BME280;61816;53.582;10.096;2022-09-14T06:03:38;100344.94;;;15.38;82.93
73551;BME280;61816;53.582;10.096;2022-09-14T06:06:05;100350.03;;;15.47;81.77
73551;BME280;61816;53.582;10.096;2022-09-14T06:08:30;100350.44;;;15.51;80.94
73551;BME280;61816;53.582;10.096;2022-09-14T06:10:56;100348.34;;;15.46;81.47
73551;BME280;61816;53.582;10.096;2022-09-14T06:13:21;100345.03;;;15.58;81.14
73551;BME280;61816;53.582;10.096;2022-09-14T06:15:48;100343.44;;;15.70;80.21
73551;BME280;61816;53.582;10.096;2022-09-14T06:18:13;100343.09;;;15.52;80.31
73551;BME280;61816;53.582;10.096;2022-09-14T06:20:39;100345.22;;;15.97;78.75
73551;BME280;61816;53.582;10.096;2022-09-14T06:23:04;100340.88;;;15.62;80.43
73551;BME280;61816;53.582;10.096;2022-09-14T06:25:29;100343.44;;;15.77;80.69
73551;BME280;61816;53.582;10.096;2022-09-14T06:27:55;100346.03;;;15.91;80.10
73551;BME280;61816;53.582;10.096;2022-09-14T06:30:21;100346.44;;;15.88;78.87
73551;BME280;61816;53.582;10.096;2022-09-14T06:32:46;100344.19;;;15.57;80.35
73551;BME280;61816;53.582;10.096;2022-09-14T06:35:11;100339.13;;;15.47;80.30
73551;BME280;61816;53.582;10.096;2022-09-14T06:37:37;100337.28;;;15.61;80.38
73551;BME280;61816;53.582;10.096;2022-09-14T06:40:02;100336.53;;;15.74;79.32
73551;BME280;61816;53.582;10.096;2022-09-14T06:42:29;100344.16;;;15.51;80.05
73551;BME280;61816;53.582;10.096;2022-09-14T06:44:54;100338.69;;;15.51;80.16
73551;BME280;61816;53.582;10.096;2022-09-14T06:47:20;100338.31;;;15.19;81.20
73551;BME280;61816;53.582;10.096;2022-09-14T06:49:45;100339.06;;;15.34;80.79
73551;BME280;61816;53.582;10.096;2022-09-14T06:52:11;100334.91;;;15.52;81.03
73551;BME280;61816;53.582;10.096;2022-09-14T06:54:36;100331.56;;;15.50;80.52
73551;BME280;61816;53.582;10.096;2022-09-14T06:57:01;100329.66;;;15.43;80.77
73551;BME280;61816;53.582;10.096;2022-09-14T06:59:27;100335.59;;;15.19;81.90
73551;BME280;61816;53.582;10.096;2022-09-14T07:01:53;100335.69;;;15.32;81.31
73551;BME280;61816;53.582;10.096;2022-09-14T07:04:18;100331.34;;;15.03;82.88
73551;BME280;61816;53.582;10.096;2022-09-14T07:06:47;100343.31;;;15.09;82.36
73551;BME280;61816;53.582;10.096;2022-09-14T07:09:13;100338.19;;;15.27;82.11
73551;BME280;61816;53.582;10.096;2022-09-14T07:11:40;100341.25;;;15.52;81.13
73551;BME280;61816;53.582;10.096;2022-09-14T07:14:06;100345.84;;;15.52;81.65
73551;BME280;61816;53.582;10.096;2022-09-14T07:16:33;100349.97;;;15.34;81.84
73551;BME280;61816;53.582;10.096;2022-09-14T07:19:02;100341.97;;;15.26;82.33
73551;BME280;61816;53.582;10.096;2022-09-14T07:21:29;100339.56;;;15.58;81.62
73551;BME280;61816;53.582;10.096;2022-09-14T07:23:55;100337.16;;;15.76;80.84
73551;BME280;61816;53.582;10.096;2022-09-14T07:26:40;100343.31;;;15.91;80.57
73551;BME280;61816;53.582;10.096;2022-09-14T07:29:13;100342.84;;;15.81;81.25
73551;BME280;61816;53.582;10.096;2022-09-14T07:31:41;100337.56;;;15.73;81.28
73551;BME280;61816;53.582;10.096;2022-09-14T07:34:07;100343.03;;;15.73;81.30
73551;BME280;61816;53.582;10.096;2022-09-14T07:36:34;100344.72;;;15.74;81.40
73551;BME280;61816;53.582;10.096;2022-09-14T07:39:01;100354.78;;;15.73;80.97
73551;BME280;61816;53.582;10.096;2022-09-14T07:41:28;100346.88;;;15.98;80.44
73551;BME280;61816;53.582;10.096;2022-09-14T07:43:56;100336.00;;;16.32;79.79
73551;BME280;61816;53.582;10.096;2022-09-14T07:46:25;100345.28;;;16.50;79.07
73551;BME280;61816;53.582;10.096;2022-09-14T07:49:01;100351.13;;;16.47;79.16
73551;BME280;61816;53.582;10.096;2022-09-14T07:51:28;100349.50;;;16.79;77.11
73551;BME280;61816;53.582;10.096;2022-09-14T07:53:54;100351.38;;;16.79;76.74
73551;BME280;61816;53.582;10.096;2022-09-14T07:56:20;100350.75;;;16.90;77.28
73551;BME280;61816;53.582;10.096;2022-09-14T07:58:46;100354.72;;;16.54;77.38
73551;BME280;61816;53.582;10.096;2022-09-14T08:01:16;100356.63;;;16.74;77.41
73551;BME280;61816;53.582;10.096;2022-09-14T08:03:45;100349.47;;;16.46;78.72
73551;BME280;61816;53.582;10.096;2022-09-14T08:06:16;100345.69;;;16.74;76.94
73551;BME280;61816;53.582;10.096;2022-09-14T08:08:45;100336.00;;;17.04;76.28
73551;BME280;61816;53.582;10.096;2022-09-14T08:11:18;100337.66;;;17.05;75.96
73551;BME280;61816;53.582;10.096;2022-09-14T08:13:44;100326.53;;;17.58;74.17
73551;BME280;61816;53.582;10.096;2022-09-14T08:16:11;100325.06;;;18.07;71.82
73551;BME280;61816;53.582;10.096;2022-09-14T08:18:37;100318.50;;;18.40;71.43
73551;BME280;61816;53.582;10.096;2022-09-14T08:23:29;100331.41;;;18.01;70.73
73551;BME280;61816;53.582;10.096;2022-09-14T08:25:54;100332.63;;;18.05;70.30
73551;BME280;61816;53.582;10.096;2022-09-14T08:28:19;100331.13;;;17.78;70.04
73551;BME280;61816;53.582;10.096;2022-09-14T08:30:45;100324.06;;;17.50;69.59
73551;BME280;61816;53.582;10.096;2022-09-14T08:33:11;100327.78;;;17.62;69.11
73551;BME280;61816;53.582;10.096;2022-09-14T08:35:43;100312.94;;;17.90;69.45
73551;BME280;61816;53.582;10.096;2022-09-14T08:38:09;100321.94;;;17.52;70.99
73551;BME280;61816;53.582;10.096;2022-09-14T08:40:42;100314.50;;;17.66;70.74
73551;BME280;61816;53.582;10.096;2022-09-14T08:43:10;100317.00;;;17.23;72.14
73551;BME280;61816;53.582;10.096;2022-09-14T08:45:39;100307.75;;;17.24;72.47
73551;BME280;61816;53.582;10.096;2022-09-14T08:48:14;100317.56;;;17.38;71.95
73551;BME280;61816;53.582;10.096;2022-09-14T08:50:41;100322.81;;;17.46;72.07
73551;BME280;61816;53.582;10.096;2022-09-14T08:53:07;100308.81;;;17.68;70.86
73551;BME280;61816;53.582;10.096;2022-09-14T08:55:48;100314.47;;;18.11;69.75
73551;BME280;61816;53.582;10.096;2022-09-14T09:09:35;100302.63;;;18.17;63.39
73551;BME280;61816;53.582;10.096;2022-09-14T09:12:04;100303.94;;;18.14;64.15
73551;BME280;61816;53.582;10.096;2022-09-14T09:14:36;100297.56;;;18.21;62.97
73551;BME280;61816;53.582;10.096;2022-09-14T09:17:10;100289.84;;;18.86;62.50
73551;BME280;61816;53.582;10.096;2022-09-14T09:19:54;100293.28;;;18.25;63.04
73551;BME280;61816;53.582;10.096;2022-09-14T09:22:23;100286.25;;;18.60;63.10
73551;BME280;61816;53.582;10.096;2022-09-14T09:24:53;100283.47;;;18.42;60.43
73551;BME280;61816;53.582;10.096;2022-09-14T09:27:19;100277.63;;;18.32;61.41
73551;BME280;61816;53.582;10.096;2022-09-14T09:29:44;100283.28;;;18.37;61.41
73551;BME280;61816;53.582;10.096;2022-09-14T09:32:14;100292.94;;;18.64;60.52
73551;BME280;61816;53.582;10.096;2022-09-14T09:34:40;100281.47;;;18.99;57.26
73551;BME280;61816;53.582;10.096;2022-09-14T09:37:12;100274.13;;;19.30;58.09
73551;BME280;61816;53.582;10.096;2022-09-14T09:39:39;100276.81;;;19.18;58.00
73551;BME280;61816;53.582;10.096;2022-09-14T09:42:25;100278.34;;;19.32;57.43
73551;BME280;61816;53.582;10.096;2022-09-14T09:47:24;100273.66;;;18.78;56.90
73551;BME280;61816;53.582;10.096;2022-09-14T09:49:58;100276.50;;;18.64;57.02
73551;BME280;61816;53.582;10.096;2022-09-14T09:52:23;100260.50;;;18.61;58.26
73551;BME280;61816;53.582;10.096;2022-09-14T09:54:51;100254.94;;;18.75;58.71
73551;BME280;61816;53.582;10.096;2022-09-14T09:57:21;100248.78;;;18.54;59.41
73551;BME280;61816;53.582;10.096;2022-09-14T09:59:47;100262.31;;;18.49;59.98
73551;BME280;61816;53.582;10.096;2022-09-14T10:05:03;100248.69;;;18.86;59.23
73551;BME280;61816;53.582;10.096;2022-09-14T10:07:31;100254.94;;;18.75;58.69
73551;BME280;61816;53.582;10.096;2022-09-14T10:10:06;100256.47;;;18.89;58.69
73551;BME280;61816;53.582;10.096;2022-09-14T10:12:33;100265.59;;;19.01;58.58
73551;BME280;61816;53.582;10.096;2022-09-14T10:15:17;100250.41;;;19.35;58.70
73551;BME280;61816;53.582;10.096;2022-09-14T10:25:44;100262.00;;;18.39;59.91
73551;BME280;61816;53.582;10.096;2022-09-14T10:28:21;100261.75;;;18.15;60.86
73551;BME280;61816;53.582;10.096;2022-09-14T10:30:55;100259.63;;;18.17;62.00
73551;BME280;61816;53.582;10.096;2022-09-14T10:33:24;100260.31;;;18.38;60.96
73551;BME280;61816;53.582;10.096;2022-09-14T10:47:15;100258.41;;;18.13;61.56
73551;BME280;61816;53.582;10.096;2022-09-14T10:49:57;100266.63;;;18.13;61.27
73551;BME280;61816;53.582;10.096;2022-09-14T10:52:35;100268.91;;;18.16;61.49
73551;BME280;61816;53.582;10.096;2022-09-14T10:55:30;100283.31;;;18.05;61.20
73551;BME280;61816;53.582;10.096;2022-09-14T11:04:00;100250.41;;;18.12;61.10
73551;BME280;61816;53.582;10.096;2022-09-14T11:06:51;100259.19;;;18.21;61.07
73551;BME280;61816;53.582;10.096;2022-09-14T11:09:47;100266.25;;;18.35;60.73
73551;BME280;61816;53.582;10.096;2022-09-14T11:12:55;100257.50;;;18.69;60.17
73551;BME280;61816;53.582;10.096;2022-09-14T11:15:33;100270.03;;;19.02;58.71
73551;BME280;61816;53.582;10.096;2022-09-14T11:31:42;100238.59;;;19.35;58.01
73551;BME280;61816;53.582;10.096;2022-09-14T11:34:27;100248.81;;;19.28;58.42
73551;BME280;61816;53.582;10.096;2022-09-14T11:37:05;100247.56;;;19.60;57.76
73551;BME280;61816;53.582;10.096;2022-09-14T11:39:39;100241.16;;;19.66;58.20
73551;BME280;61816;53.582;10.096;2022-09-14T11:42:15;100246.97;;;19.40;59.21
73551;BME280;61816;53.582;10.096;2022-09-14T11:44:43;100250.94;;;19.44;58.68
73551;BME280;61816;53.582;10.096;2022-09-14T11:47:16;100251.28;;;18.99;60.28
73551;BME280;61816;53.582;10.096;2022-09-14T11:50:02;100254.78;;;18.88;61.04
73551;BME280;61816;53.582;10.096;2022-09-14T11:52:32;100252.84;;;18.45;62.02
73551;BME280;61816;53.582;10.096;2022-09-14T11:54:58;100250.44;;;18.05;61.71
73551;BME280;61816;53.582;10.096;2022-09-14T11:57:31;100248.44;;;18.44;61.12
73551;BME280;61816;53.582;10.096;2022-09-14T11:59:59;100250.75;;;18.22;62.68
73551;BME280;61816;53.582;10.096;2022-09-14T12:12:52;100249.25;;;18.01;64.80
73551;BME280;61816;53.582;10.096;2022-09-14T12:18:18;100241.53;;;18.16;65.57
73551;BME280;61816;53.582;10.096;2022-09-14T12:20:46;100240.19;;;18.26;65.93
73551;BME280;61816;53.582;10.096;2022-09-14T12:36:09;100239.16;;;17.95;69.05
73551;BME280;61816;53.582;10.096;2022-09-14T12:57:27;100244.53;;;18.58;64.47
73551;BME280;61816;53.582;10.096;2022-09-14T13:00:09;100241.75;;;18.40;65.95
73551;BME280;61816;53.582;10.096;2022-09-14T13:03:01;100242.66;;;18.34;66.96
73551;BME280;61816;53.582;10.096;2022-09-14T13:05:33;100244.63;;;18.45;66.31
73551;BME280;61816;53.582;10.096;2022-09-14T13:07:59;100248.56;;;18.31;66.50
73551;BME280;61816;53.582;10.096;2022-09-14T13:10:32;100245.22;;;18.29;66.30
73551;BME280;61816;53.582;10.096;2022-09-14T13:13:05;100240.63;;;18.23;66.40
73551;BME280;61816;53.582;10.096;2022-09-14T13:15:51;100228.00;;;18.22;66.37
73551;BME280;61816;53.582;10.096;2022-09-14T13:20:53;100230.63;;;18.35;66.26
73551;BME280;61816;53.582;10.096;2022-09-14T13:23:36;100225.81;;;18.30;65.75
73551;BME280;61816;53.582;10.096;2022-09-14T13:26:09;100215.31;;;18.70;65.25
73551;BME280;61816;53.582;10.096;2022-09-14T13:28:35;100214.22;;;18.53;65.86
73551;BME280;61816;53.582;10.096;2022-09-14T13:31:01;100214.09;;;18.66;65.16
73551;BME280;61816;53.582;10.096;2022-09-14T13:33:28;100209.63;;;18.47;64.61
73551;BME280;61816;53.582;10.096;2022-09-14T13:35:59;100215.47;;;18.76;64.04
73551;BME280;61816;53.582;10.096;2022-09-14T13:38:29;100211.38;;;18.85;64.28
73551;BME280;61816;53.582;10.096;2022-09-14T13:41:03;100207.53;;;18.67;64.48
73551;BME280;61816;53.582;10.096;2022-09-14T13:43:29;100201.41;;;18.47;65.01
73551;BME280;61816;53.582;10.096;2022-09-14T13:45:55;100194.22;;;18.28;66.00
73551;BME280;61816;53.582;10.096;2022-09-14T13:48:21;100199.72;;;18.64;64.61
73551;BME280;61816;53.582;10.096;2022-09-14T13:50:49;100187.97;;;18.21;65.34
73551;BME280;61816;53.582;10.096;2022-09-14T13:53:37;100201.06;;;18.37;64.46
73551;BME280;61816;53.582;10.096;2022-09-14T13:56:25;100193.06;;;18.35;64.38
73551;BME280;61816;53.582;10.096;2022-09-14T14:01:42;100189.50;;;18.35;63.44
73551;BME280;61816;53.582;10.096;2022-09-14T14:04:33;100185.97;;;18.53;62.66
73551;BME280;61816;53.582;10.096;2022-09-14T14:07:17;100187.53;;;18.85;61.98
73551;BME280;61816;53.582;10.096;2022-09-14T14:09:51;100185.56;;;18.49;61.19
73551;BME280;61816;53.582;10.096;2022-09-14T14:15:00;100175.63;;;18.30;61.76
73551;BME280;61816;53.582;10.096;2022-09-14T14:17:30;100168.41;;;18.79;60.51
73551;BME280;61816;53.582;10.096;2022-09-14T14:25:39;100169.88;;;19.11;59.72
73551;BME280;61816;53.582;10.096;2022-09-14T14:28:16;100166.09;;;18.94;60.06
73551;BME280;61816;53.582;10.096;2022-09-14T14:30:41;100169.16;;;18.86;60.08
73551;BME280;61816;53.582;10.096;2022-09-14T14:33:15;100162.34;;;18.88;59.00
73551;BME280;61816;53.582;10.096;2022-09-14T14:35:46;100158.78;;;18.69;59.69
73551;BME280;61816;53.582;10.096;2022-09-14T14:38:12;100151.88;;;18.85;58.85
73551;BME280;61816;53.582;10.096;2022-09-14T14:40:38;100150.72;;;18.75;58.86
73551;BME280;61816;53.582;10.096;2022-09-14T14:43:05;100145.47;;;18.91;58.82
73551;BME280;61816;53.582;10.096;2022-09-14T14:45:31;100161.25;;;19.08;58.34
73551;BME280;61816;53.582;10.096;2022-09-14T14:47:58;100147.47;;;18.96;58.58
73551;BME280;61816;53.582;10.096;2022-09-14T14:50:31;100150.03;;;18.97;57.99
73551;BME280;61816;53.582;10.096;2022-09-14T14:52:57;100141.81;;;18.79;56.70
73551;BME280;61816;53.582;10.096;2022-09-14T14:55:23;100139.41;;;18.64;57.42
73551;BME280;61816;53.582;10.096;2022-09-14T14:57:50;100139.44;;;18.83;56.97
73551;BME280;61816;53.582;10.096;2022-09-14T15:00:18;100133.34;;;18.81;57.31
73551;BME280;61816;53.582;10.096;2022-09-14T15:02:44;100132.34;;;18.93;57.10
73551;BME280;61816;53.582;10.096;2022-09-14T15:05:10;100130.28;;;18.89;57.22
73551;BME280;61816;53.582;10.096;2022-09-14T15:07:36;100124.53;;;19.39;55.66
73551;BME280;61816;53.582;10.096;2022-09-14T15:10:02;100120.56;;;19.76;54.12
73551;BME280;61816;53.582;10.096;2022-09-14T15:12:27;100117.22;;;19.74;54.28
73551;BME280;61816;53.582;10.096;2022-09-14T15:14:53;100123.09;;;19.48;54.76
73551;BME280;61816;53.582;10.096;2022-09-14T15:17:18;100119.97;;;19.33;55.39
73551;BME280;61816;53.582;10.096;2022-09-14T15:19:44;100121.19;;;19.37;55.25
73551;BME280;61816;53.582;10.096;2022-09-14T15:22:09;100113.16;;;19.65;54.88
73551;BME280;61816;53.582;10.096;2022-09-14T15:24:35;100113.00;;;19.60;55.13
73551;BME280;61816;53.582;10.096;2022-09-14T15:27:01;100101.69;;;19.68;54.63
73551;BME280;61816;53.582;10.096;2022-09-14T15:29:27;100099.91;;;19.97;54.15